createdAt,value
2019-05-17T00:02:12.569Z,42.93
2019-05-17T00:04:43.464Z,44.57
2019-05-17T00:07:16.756Z,46.50
2019-05-17T00:09:47.887Z,45.93
2019-05-17T00:12:19.190Z,43.17
2019-05-17T00:14:50.188Z,44.37
2019-05-17T00:17:22.617Z,46.00
2019-05-17T00:19:53.788Z,43.50
2019-05-17T00:22:26.878Z,42.50
2019-05-17T00:24:57.845Z,47.13
2019-05-17T00:27:28.873Z,46.23
2019-05-17T00:30:00.131Z,41.83
2019-05-17T00:32:31.091Z,43.37
2019-05-17T00:35:02.333Z,42.47
2019-05-17T00:37:33.313Z,41.13
2019-05-17T00:40:08.784Z,39.93
2019-05-17T00:42:39.692Z,40.97
2019-05-17T00:45:11.003Z,39.20
2019-05-17T00:47:42.149Z,41.73
2019-05-17T00:50:12.627Z,38.60
2019-05-17T00:52:43.988Z,40.87
2019-05-17T00:55:17.304Z,39.93
2019-05-17T00:57:48.084Z,44.23
2019-05-17T01:00:19.545Z,41.40
2019-05-17T01:02:50.779Z,43.10
2019-05-17T01:05:21.766Z,40.07
2019-05-17T01:07:52.907Z,43.43
2019-05-17T01:10:23.904Z,43.80
2019-05-17T01:12:57.400Z,48.70
2019-05-17T01:15:27.936Z,46.80
2019-05-17T01:17:59.275Z,53.07
2019-05-17T01:20:32.944Z,52.90
2019-05-17T01:23:04.263Z,45.90
2019-05-17T01:25:36.844Z,48.10
2019-05-17T01:28:07.857Z,48.07
2019-05-17T01:30:39.258Z,52.50
2019-05-17T01:33:10.217Z,47.40
2019-05-17T01:35:41.323Z,49.87
2019-05-17T01:38:12.464Z,55.70
2019-05-17T01:40:43.942Z,51.17
2019-05-17T01:43:16.623Z,53.23
2019-05-17T01:45:48.152Z,53.40
2019-05-17T01:48:19.043Z,53.93
2019-05-17T01:50:50.130Z,56.20
2019-05-17T01:53:21.188Z,47.93
2019-05-17T01:55:52.656Z,54.70
2019-05-17T01:58:23.586Z,50.90
2019-05-17T02:00:53.680Z,51.80
2019-05-17T02:03:26.749Z,42.00
2019-05-17T02:05:57.503Z,48.37
2019-05-17T02:08:29.347Z,48.10
2019-05-17T02:11:00.267Z,54.33
2019-05-17T02:13:31.500Z,51.33
2019-05-17T02:16:02.576Z,58.47
2019-05-17T02:18:33.723Z,52.33
2019-05-17T02:21:06.558Z,48.80
2019-05-17T02:23:37.900Z,56.17
2019-05-17T02:26:08.972Z,51.00
2019-05-17T02:28:41.456Z,56.73
2019-05-17T02:31:13.348Z,55.33
2019-05-17T02:33:46.211Z,53.87
2019-05-17T02:36:17.334Z,52.90
2019-05-17T02:38:47.447Z,54.47
2019-05-17T02:41:18.692Z,53.33
2019-05-17T02:43:53.212Z,58.10
2019-05-17T02:46:23.181Z,55.43
2019-05-17T02:48:54.237Z,44.70
2019-05-17T02:51:25.311Z,59.80
2019-05-17T02:53:56.295Z,57.87
2019-05-17T02:56:27.545Z,69.80
2019-05-17T02:58:58.419Z,64.00
2019-05-17T03:01:32.847Z,63.13
2019-05-17T03:04:03.832Z,63.40
2019-05-17T03:06:35.405Z,59.27
2019-05-17T03:09:06.878Z,60.87
2019-05-17T03:11:36.947Z,62.40
2019-05-17T03:14:08.194Z,57.43
2019-05-17T03:16:39.159Z,67.97
2019-05-17T03:19:13.029Z,60.03
2019-05-17T03:21:43.298Z,64.80
2019-05-17T03:24:14.425Z,60.03
2019-05-17T03:26:45.361Z,73.73
2019-05-17T03:29:16.643Z,61.83
2019-05-17T03:31:58.018Z,70.07
2019-05-17T03:34:26.279Z,70.67
2019-05-17T03:36:56.795Z,67.73
2019-05-17T03:39:28.522Z,71.37
2019-05-17T03:42:02.425Z,73.17
2019-05-17T03:44:33.537Z,65.00
2019-05-17T03:47:05.362Z,65.57
2019-05-17T03:49:39.168Z,63.73
2019-05-17T03:52:08.359Z,59.57
2019-05-17T03:54:39.303Z,52.73
2019-05-17T03:57:13.344Z,70.27
2019-05-17T03:59:43.289Z,60.63
2019-05-17T04:02:14.592Z,69.50
2019-05-17T04:04:45.574Z,66.40
2019-05-17T04:07:16.698Z,57.87
2019-05-17T04:09:47.731Z,74.83
2019-05-17T04:12:19.064Z,65.10
2019-05-17T04:14:53.077Z,64.13
2019-05-17T04:17:23.117Z,60.10
2019-05-17T04:19:54.056Z,62.27
2019-05-17T04:22:24.124Z,63.60
2019-05-17T04:24:55.432Z,66.93
2019-05-17T04:27:26.499Z,58.87
2019-05-17T04:29:57.687Z,59.97
2019-05-17T04:32:28.724Z,61.20
2019-05-17T04:35:03.319Z,61.93
2019-05-17T04:37:34.004Z,57.43
2019-05-17T04:40:07.060Z,62.43
2019-05-17T04:42:38.095Z,63.03
2019-05-17T04:45:12.452Z,56.60
2019-05-17T04:47:44.209Z,58.13
2019-05-17T04:50:23.065Z,53.67
2019-05-17T04:52:54.047Z,56.10
2019-05-17T04:55:25.237Z,49.70
2019-05-17T04:58:07.475Z,53.43
2019-05-17T05:00:46.314Z,60.47
2019-05-17T05:09:23.954Z,42.27
2019-05-17T05:12:01.192Z,41.67
2019-05-17T05:14:32.727Z,43.27
2019-05-17T05:17:02.392Z,40.57
2019-05-17T05:19:33.135Z,38.77
2019-05-17T05:22:04.877Z,39.47
2019-05-17T05:24:36.215Z,39.87
2019-05-17T05:27:07.204Z,36.87
2019-05-17T05:29:38.509Z,39.23
2019-05-17T05:32:11.675Z,37.03
2019-05-17T05:34:42.920Z,37.53
2019-05-17T05:37:14.824Z,37.57
2019-05-17T05:39:46.128Z,37.63
2019-05-17T05:42:17.228Z,30.47
2019-05-17T05:44:48.561Z,32.77
2019-05-17T05:47:19.527Z,34.87
2019-05-17T05:49:52.048Z,27.37
2019-05-17T05:52:23.052Z,28.77
2019-05-17T05:54:53.108Z,23.23
2019-05-17T05:57:24.280Z,24.87
2019-05-17T05:59:55.805Z,22.93
2019-05-17T06:02:27.180Z,24.03
2019-05-17T06:04:58.170Z,20.77
2019-05-17T06:07:32.047Z,20.67
2019-05-17T06:10:02.391Z,22.33
2019-05-17T06:12:33.716Z,19.63
2019-05-17T06:15:08.780Z,20.50
2019-05-17T06:17:43.272Z,19.47
2019-05-17T06:20:15.240Z,19.30
2019-05-17T06:22:46.390Z,19.90
2019-05-17T06:25:17.525Z,19.23
2019-05-17T06:27:47.658Z,19.93
2019-05-17T06:30:21.819Z,18.10
2019-05-17T06:32:52.336Z,16.73
2019-05-17T06:35:23.618Z,19.23
2019-05-17T06:37:54.586Z,18.60
2019-05-17T06:40:25.873Z,18.13
2019-05-17T06:42:56.901Z,18.87
2019-05-17T06:45:28.284Z,18.27
2019-05-17T06:47:59.266Z,18.33
2019-05-17T06:50:32.602Z,16.70
2019-05-17T06:53:12.638Z,16.80
2019-05-17T06:55:44.074Z,16.23
2019-05-17T06:58:15.124Z,16.87
2019-05-17T07:00:45.282Z,16.07
2019-05-17T07:03:16.513Z,16.60
2019-05-17T07:05:50.234Z,13.40
2019-05-17T07:08:30.100Z,12.40
2019-05-17T07:11:03.395Z,10.63
2019-05-17T07:13:34.564Z,11.37
2019-05-17T07:16:05.604Z,11.97
2019-05-17T07:18:36.798Z,11.13
2019-05-17T07:21:10.032Z,11.17
2019-05-17T07:23:41.166Z,10.07
2019-05-17T07:26:12.215Z,11.13
2019-05-17T07:28:43.470Z,11.37
2019-05-17T07:31:14.555Z,11.30
2019-05-17T07:33:45.654Z,10.23
2019-05-17T07:36:16.758Z,11.63
2019-05-17T07:38:46.916Z,10.23
2019-05-17T07:41:20.273Z,11.13
2019-05-17T07:43:50.909Z,10.83
2019-05-17T07:46:22.096Z,9.13
2019-05-17T07:48:53.094Z,8.97
2019-05-17T07:51:24.216Z,8.67
2019-05-17T07:53:55.140Z,8.67
2019-05-17T07:56:26.364Z,9.20
2019-05-17T07:58:57.335Z,7.00
2019-05-17T08:01:29.685Z,6.57
2019-05-17T08:04:00.912Z,7.00
2019-05-17T08:06:32.066Z,6.47
2019-05-17T08:09:04.541Z,8.00
2019-05-17T08:11:34.776Z,6.43
2019-05-17T08:14:06.148Z,7.03
2019-05-17T08:16:39.370Z,6.67
2019-05-17T08:19:10.132Z,5.57
2019-05-17T08:21:41.113Z,6.27
2019-05-17T08:24:12.372Z,5.63
2019-05-17T08:26:43.322Z,6.30
2019-05-17T08:29:14.570Z,5.37
2019-05-17T08:31:45.435Z,5.87
2019-05-17T08:34:16.622Z,5.17
2019-05-17T08:36:49.819Z,5.50
2019-05-17T08:39:20.744Z,5.40
2019-05-17T08:41:51.713Z,5.40
2019-05-17T08:44:22.931Z,5.20
2019-05-17T08:46:53.940Z,5.50
2019-05-17T08:49:24.055Z,4.67
2019-05-17T08:51:59.471Z,5.30
2019-05-17T08:54:32.829Z,4.67
2019-05-17T08:57:04.083Z,4.87
2019-05-17T08:59:35.070Z,4.77
2019-05-17T09:02:06.234Z,4.73
2019-05-17T09:04:37.153Z,5.00
2019-05-17T09:07:09.462Z,4.03
2019-05-17T09:09:40.495Z,4.10
2019-05-17T09:12:11.828Z,4.47
2019-05-17T09:14:42.813Z,4.40
2019-05-17T09:17:14.002Z,4.63
2019-05-17T09:19:44.996Z,3.80
2019-05-17T09:22:15.108Z,4.47
2019-05-17T09:24:46.217Z,3.60
2019-05-17T09:27:19.598Z,3.87
2019-05-17T09:29:50.023Z,3.50
2019-05-17T09:32:21.015Z,3.00
2019-05-17T09:34:52.211Z,3.20
2019-05-17T09:37:23.109Z,4.30
2019-05-17T09:39:54.237Z,4.30
2019-05-17T09:42:25.173Z,4.40
2019-05-17T09:44:56.609Z,3.93
2019-05-17T09:47:29.943Z,3.83
2019-05-17T09:50:00.761Z,5.50
2019-05-17T09:52:31.690Z,3.50
2019-05-17T09:55:01.748Z,4.57
2019-05-17T09:57:32.877Z,3.63
2019-05-17T10:00:05.673Z,3.40
2019-05-17T10:02:36.831Z,4.30
2019-05-17T10:05:10.569Z,3.60
2019-05-17T10:07:41.798Z,3.67
2019-05-17T10:10:12.998Z,4.00
2019-05-17T10:12:44.228Z,3.20
2019-05-17T10:15:15.255Z,3.27
2019-05-17T10:17:46.556Z,3.43
2019-05-17T10:20:19.848Z,3.53
2019-05-17T10:22:50.675Z,3.10
2019-05-17T10:25:21.663Z,3.10
2019-05-17T10:27:52.917Z,3.30
2019-05-17T10:30:23.985Z,3.00
2019-05-17T10:32:54.780Z,2.77
2019-05-17T10:35:26.053Z,3.47
2019-05-17T10:37:59.363Z,3.43
2019-05-17T10:40:30.106Z,3.20
2019-05-17T10:43:01.146Z,3.20
2019-05-17T10:45:32.386Z,3.30
2019-05-17T10:48:03.421Z,3.27
2019-05-17T10:50:34.532Z,3.60
2019-05-17T10:53:05.567Z,6.53
2019-05-17T10:55:36.960Z,2.53
2019-05-17T10:58:10.030Z,3.90
2019-05-17T11:00:41.619Z,3.10
2019-05-17T11:03:12.858Z,2.80
2019-05-17T11:05:42.933Z,3.00
2019-05-17T11:08:14.055Z,3.10
2019-05-17T11:10:45.120Z,2.53
2019-05-17T11:13:16.290Z,2.63
2019-05-17T11:15:47.389Z,2.67
2019-05-17T11:18:18.789Z,2.63
2019-05-17T11:20:49.740Z,2.53
2019-05-17T11:23:20.905Z,2.37
2019-05-17T11:25:51.918Z,2.10
2019-05-17T11:28:23.383Z,2.27
2019-05-17T11:30:54.413Z,3.30
2019-05-17T11:33:24.480Z,2.60
2019-05-17T11:35:55.646Z,2.60
2019-05-17T11:38:26.748Z,2.47
2019-05-17T11:40:57.852Z,4.00
2019-05-17T11:43:28.819Z,2.30
2019-05-17T11:46:00.142Z,3.20
2019-05-17T11:48:31.126Z,2.27
2019-05-17T11:51:02.361Z,2.50
2019-05-17T11:53:33.363Z,2.20
2019-05-17T11:56:04.606Z,2.03
2019-05-17T11:58:35.540Z,1.97
2019-05-17T12:01:06.814Z,3.00
2019-05-17T12:03:37.894Z,2.40
2019-05-17T12:06:08.101Z,2.60
2019-05-17T12:08:39.355Z,2.63
2019-05-17T12:11:10.310Z,2.20
2019-05-17T12:13:43.622Z,2.00
2019-05-17T12:16:14.582Z,3.43
2019-05-17T12:18:48.811Z,2.80
2019-05-17T12:21:19.823Z,2.47
2019-05-17T12:23:50.986Z,2.40
2019-05-17T12:26:21.936Z,2.53
2019-05-17T12:28:53.148Z,2.53
2019-05-17T12:31:24.034Z,2.30
2019-05-17T12:33:55.222Z,2.27
2019-05-17T12:36:26.334Z,3.37
2019-05-17T12:38:57.517Z,3.53
2019-05-17T12:41:28.494Z,2.67
2019-05-17T12:43:58.564Z,1.77
2019-05-17T12:46:29.874Z,4.57
2019-05-17T12:49:02.073Z,2.17
2019-05-17T12:51:33.602Z,2.67
2019-05-17T12:54:04.684Z,2.57
2019-05-17T12:56:35.943Z,2.80
2019-05-17T12:59:07.012Z,1.77
2019-05-17T13:01:38.202Z,2.17
2019-05-17T13:04:09.109Z,1.70
2019-05-17T13:06:40.259Z,2.50
2019-05-17T13:09:11.202Z,1.90
2019-05-17T13:11:42.368Z,3.53
2019-05-17T13:14:13.331Z,2.90
2019-05-17T13:16:44.582Z,2.13
2019-05-17T13:19:15.743Z,1.83
2019-05-17T13:21:46.703Z,2.53
2019-05-17T13:24:17.941Z,2.57
2019-05-17T13:26:48.918Z,1.73
2019-05-17T13:29:20.121Z,2.73
2019-05-17T13:31:51.183Z,1.62
2019-05-17T13:34:22.495Z,2.10
2019-05-17T13:36:56.532Z,1.75
2019-05-17T13:39:27.655Z,1.77
2019-05-17T13:41:58.631Z,1.57
2019-05-17T13:44:29.865Z,2.42
2019-05-17T13:47:00.909Z,1.77
2019-05-17T13:49:31.040Z,3.15
2019-05-17T13:52:02.478Z,1.40
2019-05-17T13:54:33.485Z,1.63
2019-05-17T13:57:04.703Z,2.90
2019-05-17T13:59:37.323Z,2.50
2019-05-17T14:02:08.578Z,2.43
2019-05-17T14:04:39.549Z,1.57
2019-05-17T14:07:10.798Z,2.93
2019-05-17T14:09:41.918Z,2.67
2019-05-17T14:12:13.134Z,1.40
2019-05-17T14:14:44.098Z,3.10
2019-05-17T14:17:15.414Z,2.57
2019-05-17T14:19:46.276Z,1.60
2019-05-17T14:22:16.471Z,1.40
2019-05-17T14:24:47.720Z,1.40
2019-05-17T14:27:18.801Z,1.30
2019-05-17T14:29:50.008Z,2.20
2019-05-17T14:32:20.955Z,1.57
2019-05-17T14:34:52.125Z,1.90
2019-05-17T14:37:23.125Z,1.57
2019-05-17T14:39:54.508Z,1.43
2019-05-17T14:42:25.827Z,1.10
2019-05-17T14:44:58.709Z,3.03
2019-05-17T14:47:29.736Z,1.40
2019-05-17T14:50:01.075Z,1.57
2019-05-17T14:52:31.949Z,3.93
2019-05-17T14:55:02.342Z,2.73
2019-05-17T14:57:35.282Z,1.57
2019-05-17T15:00:07.731Z,1.67
2019-05-17T15:02:38.958Z,3.00
2019-05-17T15:05:10.305Z,1.40
2019-05-17T15:07:41.518Z,2.43
2019-05-17T15:10:12.928Z,1.53
2019-05-17T15:12:44.157Z,1.73
2019-05-17T15:15:25.688Z,1.60
2019-05-17T15:17:47.964Z,2.47
2019-05-17T15:20:19.097Z,1.73
2019-05-17T15:22:50.361Z,1.83
2019-05-17T15:25:21.270Z,3.00
2019-05-17T15:27:52.481Z,1.60
2019-05-17T15:30:23.518Z,3.23
2019-05-17T15:32:54.273Z,1.60
2019-05-17T15:35:25.423Z,1.83
2019-05-17T15:37:56.437Z,1.80
2019-05-17T15:40:27.766Z,2.07
2019-05-17T15:42:58.714Z,1.70
2019-05-17T15:45:29.967Z,1.80
2019-05-17T15:48:01.042Z,3.60
2019-05-17T15:50:32.302Z,1.77
2019-05-17T15:53:03.380Z,1.60
2019-05-17T15:55:34.439Z,1.97
2019-05-17T15:58:05.517Z,1.73
2019-05-17T16:00:36.731Z,2.20
2019-05-17T16:03:07.758Z,2.10
2019-05-17T16:05:37.872Z,2.23
2019-05-17T16:08:09.020Z,4.17
2019-05-17T16:10:40.173Z,2.33
2019-05-17T16:13:11.551Z,2.20
2019-05-17T16:15:42.513Z,2.17
2019-05-17T16:18:13.595Z,2.17
2019-05-17T16:20:44.654Z,2.23
2019-05-17T16:23:16.022Z,2.10
2019-05-17T16:25:47.048Z,3.47
2019-05-17T16:28:18.511Z,2.43
2019-05-17T16:30:49.567Z,4.10
2019-05-17T16:33:20.792Z,3.10
2019-05-17T16:35:51.825Z,2.17
2019-05-17T16:38:21.962Z,2.27
2019-05-17T16:40:53.245Z,1.87
2019-05-17T16:43:24.196Z,2.10
2019-05-17T16:45:55.362Z,2.70
2019-05-17T16:48:26.242Z,2.40
2019-05-17T16:50:57.572Z,2.77
2019-05-17T16:53:28.516Z,2.40
2019-05-17T16:56:00.548Z,2.57
2019-05-17T16:58:31.536Z,2.13
2019-05-17T17:01:03.747Z,2.33
2019-05-17T17:03:44.200Z,2.50
2019-05-17T17:06:10.291Z,3.20
2019-05-17T17:08:41.964Z,4.03
2019-05-17T17:11:12.206Z,2.50
2019-05-17T17:13:43.476Z,2.50
2019-05-17T17:16:14.490Z,2.57
2019-05-17T17:18:45.717Z,2.43
2019-05-17T17:21:16.684Z,2.37
2019-05-17T17:23:48.004Z,2.57
2019-05-17T17:26:18.946Z,2.40
2019-05-17T17:28:50.211Z,2.40
2019-05-17T17:31:21.395Z,2.50
2019-05-17T17:33:52.809Z,2.70
2019-05-17T17:36:24.436Z,2.47
2019-05-17T17:38:55.543Z,2.40
2019-05-17T17:41:26.884Z,2.60
2019-05-17T17:43:59.204Z,3.17
2019-05-17T17:46:30.301Z,3.07
2019-05-17T17:49:01.471Z,2.43
2019-05-17T17:51:32.764Z,2.60
2019-05-17T17:54:03.678Z,3.90
2019-05-17T17:56:34.891Z,2.60
2019-05-17T17:59:06.000Z,2.60
2019-05-17T18:01:37.340Z,2.53
2019-05-17T18:04:08.380Z,2.60
2019-05-17T18:06:39.608Z,2.80
2019-05-17T18:09:10.589Z,3.43
2019-05-17T18:11:41.912Z,3.17
2019-05-17T18:14:13.966Z,3.77
2019-05-17T18:16:44.373Z,2.70
2019-05-17T18:19:15.531Z,2.57
2019-05-17T18:21:46.595Z,2.87
2019-05-17T18:24:17.897Z,4.50
2019-05-17T18:26:48.815Z,2.87
2019-05-17T18:29:20.161Z,2.80
2019-05-17T18:31:51.261Z,3.17
2019-05-17T18:34:22.440Z,2.80
2019-05-17T18:36:53.423Z,3.27
2019-05-17T18:39:24.652Z,7.47
2019-05-17T18:41:55.775Z,4.87
2019-05-17T18:44:28.195Z,6.33
2019-05-17T18:46:59.386Z,4.20
2019-05-17T18:49:29.394Z,8.17
2019-05-17T18:52:00.647Z,3.47
2019-05-17T18:54:31.611Z,2.20
2019-05-17T18:57:02.834Z,2.10
2019-05-17T18:59:33.748Z,4.50
2019-05-17T19:02:05.129Z,2.10
2019-05-17T19:04:36.173Z,2.53
2019-05-17T19:07:07.470Z,2.13
2019-05-17T19:09:38.465Z,2.10
2019-05-17T19:12:09.637Z,2.33
2019-05-17T19:14:43.060Z,2.90
2019-05-17T19:17:13.363Z,2.70
2019-05-17T19:19:44.341Z,2.87
2019-05-17T19:22:14.536Z,2.50
2019-05-17T19:24:45.779Z,3.50
2019-05-17T19:27:16.689Z,2.87
2019-05-17T19:29:47.840Z,2.43
2019-05-17T19:32:18.868Z,2.33
2019-05-17T19:34:50.101Z,2.80
2019-05-17T19:37:21.712Z,4.47
2019-05-17T19:39:52.951Z,2.73
2019-05-17T19:42:23.957Z,2.47
2019-05-17T19:44:59.199Z,3.40
2019-05-17T19:47:27.907Z,2.60
2019-05-17T19:49:59.109Z,3.13
2019-05-17T19:52:30.093Z,3.10
2019-05-17T19:55:00.211Z,3.67
2019-05-17T19:57:31.360Z,2.97
2019-05-17T20:00:02.379Z,3.37
2019-05-17T20:02:33.603Z,2.73
2019-05-17T20:05:06.582Z,2.83
2019-05-17T20:07:39.392Z,2.70
2019-05-17T20:10:12.748Z,2.87
2019-05-17T20:12:44.080Z,4.63
2019-05-17T20:15:17.801Z,3.37
2019-05-17T20:17:48.413Z,3.13
2019-05-17T20:20:19.576Z,3.43
2019-05-17T20:22:50.908Z,3.57
2019-05-17T20:25:21.940Z,3.93
2019-05-17T20:27:53.098Z,2.90
2019-05-17T20:30:24.110Z,2.87
2019-05-17T20:32:54.322Z,3.80
2019-05-17T20:35:25.584Z,3.00
2019-05-17T20:37:56.453Z,2.80
2019-05-17T20:40:27.720Z,2.70
2019-05-17T20:42:58.757Z,3.40
2019-05-17T20:45:33.100Z,3.03
2019-05-17T20:48:02.775Z,3.00
2019-05-17T20:50:34.095Z,3.17
2019-05-17T20:53:18.004Z,3.23
2019-05-17T20:55:37.962Z,4.83
2019-05-17T20:58:09.009Z,2.70
2019-05-17T21:00:40.184Z,2.60
2019-05-17T21:03:13.853Z,3.37
2019-05-17T21:05:43.010Z,5.43
2019-05-17T21:08:14.146Z,2.63
2019-05-17T21:10:46.928Z,4.63
2019-05-17T21:13:18.100Z,4.03
2019-05-17T21:15:49.062Z,2.83
2019-05-17T21:18:20.246Z,2.70
2019-05-17T21:20:51.222Z,2.67
2019-05-17T21:23:22.526Z,2.80
2019-05-17T21:25:53.451Z,4.53
2019-05-17T21:28:24.653Z,2.97
2019-05-17T21:30:55.622Z,2.73
2019-05-17T21:33:26.776Z,3.23
2019-05-17T21:35:57.661Z,3.27
2019-05-17T21:38:27.780Z,3.27
2019-05-17T21:40:58.944Z,3.03
2019-05-17T21:43:29.960Z,4.10
2019-05-17T21:46:04.067Z,2.83
2019-05-17T21:48:33.781Z,4.13
2019-05-17T21:51:05.094Z,2.97
2019-05-17T21:53:35.968Z,3.13
2019-05-17T21:56:07.271Z,3.17
2019-05-17T21:58:38.280Z,3.03
2019-05-17T22:01:16.533Z,4.20
2019-05-17T22:03:47.570Z,3.13
2019-05-17T22:06:18.946Z,4.20
2019-05-17T22:08:49.968Z,3.50
2019-05-17T22:11:21.123Z,3.67
2019-05-17T22:13:52.214Z,3.40
2019-05-17T22:16:22.427Z,3.50
2019-05-17T22:18:53.610Z,3.63
2019-05-17T22:21:24.510Z,4.80
2019-05-17T22:23:55.714Z,6.50
2019-05-17T22:26:26.766Z,3.90
2019-05-17T22:28:57.910Z,4.63
2019-05-17T22:31:28.945Z,4.13
2019-05-17T22:34:00.179Z,4.27
2019-05-17T22:36:31.130Z,5.07
2019-05-17T22:39:02.287Z,4.70
2019-05-17T22:41:33.273Z,5.53
2019-05-17T22:44:04.553Z,4.70
2019-05-17T22:46:36.658Z,6.67
2019-05-17T22:49:06.909Z,10.70
2019-05-17T22:51:38.093Z,4.10
2019-05-17T22:54:09.053Z,6.63
2019-05-17T22:56:40.368Z,5.07
2019-05-17T22:59:11.217Z,4.60
2019-05-17T23:01:42.395Z,5.63
2019-05-17T23:04:13.373Z,4.17
2019-05-17T23:06:44.521Z,4.10
2019-05-17T23:09:15.475Z,4.73
2019-05-17T23:11:46.799Z,4.57
2019-05-17T23:14:17.769Z,4.13
2019-05-17T23:16:51.929Z,4.13
2019-05-17T23:19:21.733Z,3.77
2019-05-17T23:21:51.835Z,4.17
2019-05-17T23:24:23.085Z,5.17
2019-05-17T23:26:54.096Z,4.17
2019-05-17T23:29:25.290Z,4.10
2019-05-17T23:31:56.281Z,4.37
2019-05-17T23:34:27.424Z,4.80
2019-05-17T23:36:58.388Z,4.23
2019-05-17T23:39:29.733Z,4.20
2019-05-17T23:42:00.738Z,5.47
2019-05-17T23:44:32.009Z,4.33
2019-05-17T23:47:07.147Z,4.53
2019-05-17T23:49:36.054Z,5.57
2019-05-17T23:52:07.042Z,6.10
2019-05-17T23:54:37.106Z,5.80
2019-05-17T23:57:08.182Z,4.30
2019-05-17T23:59:39.167Z,4.60
